Scottown, Ohio
Current Conditions -  °F | °C
As of 7:51 PM on Sunday 21 Dec 2014 (Local Time) from KHTS Reporting Station
Clear Clear  
Wind Chill: 31°   Ceiling: Unl
Heat Index: 35°   Visibility: 10mi
Dew Point: 26°   Wind: 5mph
Humidity: 70%   Direction: 40°NE
Pressure: 30.16"   Gusts: NA
Location:  38.55°N, 82.39°W
Report Text: KHTS 220051Z 04004KT 10SM CLR 02/M03 A3016 RMK AO2 SLP219 T00171033
Loading
Personal Weather Stations






























Interactive Weather Map New forecast layout! Learn more

10-Day Weather Forecast

Advertisements
Track Severe Weather on mobile